sensor_id;sensor_type;location;lat;lon;timestamp;temperature;humidity
37108;DHT22;23019;49.300;6.846;2022-08-19T00:01:19;24.40;99.90
37108;DHT22;23019;49.300;6.846;2022-08-19T00:03:19;24.40;99.90
37108;DHT22;23019;49.300;6.846;2022-08-19T00:05:21;24.40;99.90
37108;DHT22;23019;49.300;6.846;2022-08-19T00:07:22;24.40;99.90
37108;DHT22;23019;49.300;6.846;2022-08-19T00:09:23;24.40;99.90
37108;DHT22;23019;49.300;6.846;2022-08-19T00:11:24;24.40;99.90
37108;DHT22;23019;49.300;6.846;2022-08-19T00:13:27;24.40;99.90
37108;DHT22;23019;49.300;6.846;2022-08-19T00:15:29;24.40;99.90
37108;DHT22;23019;49.300;6.846;2022-08-19T00:17:29;24.40;99.90
37108;DHT22;23019;49.300;6.846;2022-08-19T00:19:31;24.40;99.90
37108;DHT22;23019;49.300;6.846;2022-08-19T00:21:31;24.40;99.90
37108;DHT22;23019;49.300;6.846;2022-08-19T00:23:32;24.30;99.90
37108;DHT22;23019;49.300;6.846;2022-08-19T00:25:35;24.40;99.90
37108;DHT22;23019;49.300;6.846;2022-08-19T00:27:37;24.40;99.90
37108;DHT22;23019;49.300;6.846;2022-08-19T00:29:40;24.30;99.90
37108;DHT22;23019;49.300;6.846;2022-08-19T00:31:41;24.40;99.90
37108;DHT22;23019;49.300;6.846;2022-08-19T00:33:43;24.40;99.90
37108;DHT22;23019;49.300;6.846;2022-08-19T00:35:44;24.30;99.90
37108;DHT22;23019;49.300;6.846;2022-08-19T00:37:46;24.30;99.90
37108;DHT22;23019;49.300;6.846;2022-08-19T00:39:47;24.30;99.90
37108;DHT22;23019;49.300;6.846;2022-08-19T00:41:48;24.30;99.90
37108;DHT22;23019;49.300;6.846;2022-08-19T00:44:06;24.30;99.90
37108;DHT22;23019;49.300;6.846;2022-08-19T00:46:07;24.30;99.90
37108;DHT22;23019;49.300;6.846;2022-08-19T00:48:08;24.30;99.90
37108;DHT22;23019;49.300;6.846;2022-08-19T00:50:11;24.30;99.90
37108;DHT22;23019;49.300;6.846;2022-08-19T00:52:16;24.30;99.90
37108;DHT22;23019;49.300;6.846;2022-08-19T00:54:17;24.30;99.90
37108;DHT22;23019;49.300;6.846;2022-08-19T00:56:18;24.30;99.90
37108;DHT22;23019;49.300;6.846;2022-08-19T00:58:21;24.30;99.90
37108;DHT22;23019;49.300;6.846;2022-08-19T01:00:26;24.30;99.90
37108;DHT22;23019;49.300;6.846;2022-08-19T01:02:28;24.20;99.90
37108;DHT22;23019;49.300;6.846;2022-08-19T01:04:29;24.30;99.90
37108;DHT22;23019;49.300;6.846;2022-08-19T01:06:31;24.30;99.90
37108;DHT22;23019;49.300;6.846;2022-08-19T01:08:33;24.20;99.90
37108;DHT22;23019;49.300;6.846;2022-08-19T01:10:44;24.30;99.90
37108;DHT22;23019;49.300;6.846;2022-08-19T01:12:47;24.30;99.90
37108;DHT22;23019;49.300;6.846;2022-08-19T01:14:48;24.20;99.90
37108;DHT22;23019;49.300;6.846;2022-08-19T01:16:50;24.20;99.90
37108;DHT22;23019;49.300;6.846;2022-08-19T01:18:55;24.20;99.90
37108;DHT22;23019;49.300;6.846;2022-08-19T01:21:02;24.20;99.90
37108;DHT22;23019;49.300;6.846;2022-08-19T01:23:05;24.20;99.90
37108;DHT22;23019;49.300;6.846;2022-08-19T01:25:06;24.20;99.90
37108;DHT22;23019;49.300;6.846;2022-08-19T01:27:08;24.20;99.90
37108;DHT22;23019;49.300;6.846;2022-08-19T01:29:10;24.20;99.90
37108;DHT22;23019;49.300;6.846;2022-08-19T01:31:16;24.20;99.90
37108;DHT22;23019;49.300;6.846;2022-08-19T01:33:17;24.20;99.90
37108;DHT22;23019;49.300;6.846;2022-08-19T01:35:20;24.20;99.90
37108;DHT22;23019;49.300;6.846;2022-08-19T01:37:21;24.20;99.90
37108;DHT22;23019;49.300;6.846;2022-08-19T01:39:24;24.20;99.90
37108;DHT22;23019;49.300;6.846;2022-08-19T01:41:25;24.20;99.90
37108;DHT22;23019;49.300;6.846;2022-08-19T01:43:25;24.20;99.90
37108;DHT22;23019;49.300;6.846;2022-08-19T01:45:29;24.20;99.90
37108;DHT22;23019;49.300;6.846;2022-08-19T01:47:29;24.10;99.90
37108;DHT22;23019;49.300;6.846;2022-08-19T01:49:30;24.20;99.90
37108;DHT22;23019;49.300;6.846;2022-08-19T01:51:31;24.10;99.90
37108;DHT22;23019;49.300;6.846;2022-08-19T01:53:32;24.20;99.90
37108;DHT22;23019;49.300;6.846;2022-08-19T01:55:36;24.20;99.90
37108;DHT22;23019;49.300;6.846;2022-08-19T01:57:39;24.20;99.90
37108;DHT22;23019;49.300;6.846;2022-08-19T01:59:43;24.20;99.90
37108;DHT22;23019;49.300;6.846;2022-08-19T02:01:45;24.10;99.90
37108;DHT22;23019;49.300;6.846;2022-08-19T02:03:45;24.10;99.90
37108;DHT22;23019;49.300;6.846;2022-08-19T02:05:46;24.10;99.90
37108;DHT22;23019;49.300;6.846;2022-08-19T02:07:47;24.10;99.90
37108;DHT22;23019;49.300;6.846;2022-08-19T02:09:48;24.10;99.90
37108;DHT22;23019;49.300;6.846;2022-08-19T02:11:49;24.10;99.90
37108;DHT22;23019;49.300;6.846;2022-08-19T02:13:49;24.10;99.90
37108;DHT22;23019;49.300;6.846;2022-08-19T02:15:50;24.10;99.90
37108;DHT22;23019;49.300;6.846;2022-08-19T02:17:51;24.10;99.90
37108;DHT22;23019;49.300;6.846;2022-08-19T02:19:52;24.10;99.90
37108;DHT22;23019;49.300;6.846;2022-08-19T02:21:53;24.10;99.90
37108;DHT22;23019;49.300;6.846;2022-08-19T02:23:53;24.10;99.90
37108;DHT22;23019;49.300;6.846;2022-08-19T02:25:55;24.00;99.90
37108;DHT22;23019;49.300;6.846;2022-08-19T02:27:56;24.10;99.90
37108;DHT22;23019;49.300;6.846;2022-08-19T02:29:57;24.10;99.90
37108;DHT22;23019;49.300;6.846;2022-08-19T02:31:58;24.10;99.90
37108;DHT22;23019;49.300;6.846;2022-08-19T02:34:00;24.10;99.90
37108;DHT22;23019;49.300;6.846;2022-08-19T02:36:04;24.00;99.90
37108;DHT22;23019;49.300;6.846;2022-08-19T02:38:04;24.00;99.90
37108;DHT22;23019;49.300;6.846;2022-08-19T02:40:24;24.00;99.90
37108;DHT22;23019;49.300;6.846;2022-08-19T02:42:25;24.00;99.90
37108;DHT22;23019;49.300;6.846;2022-08-19T02:44:25;24.00;99.90
37108;DHT22;23019;49.300;6.846;2022-08-19T02:46:28;24.00;99.90
37108;DHT22;23019;49.300;6.846;2022-08-19T02:48:29;24.00;99.90
37108;DHT22;23019;49.300;6.846;2022-08-19T02:50:33;24.00;99.90
37108;DHT22;23019;49.300;6.846;2022-08-19T02:52:34;24.00;99.90
37108;DHT22;23019;49.300;6.846;2022-08-19T02:54:35;24.00;99.90
37108;DHT22;23019;49.300;6.846;2022-08-19T02:56:37;24.00;99.90
37108;DHT22;23019;49.300;6.846;2022-08-19T02:58:38;24.00;99.90
37108;DHT22;23019;49.300;6.846;2022-08-19T03:00:56;24.00;99.90
37108;DHT22;23019;49.300;6.846;2022-08-19T03:02:57;24.00;99.90
37108;DHT22;23019;49.300;6.846;2022-08-19T03:05:02;24.00;99.90
37108;DHT22;23019;49.300;6.846;2022-08-19T03:07:03;24.00;99.90
37108;DHT22;23019;49.300;6.846;2022-08-19T03:09:04;24.00;99.90
37108;DHT22;23019;49.300;6.846;2022-08-19T03:11:05;24.00;99.90
37108;DHT22;23019;49.300;6.846;2022-08-19T03:13:05;24.00;99.90
37108;DHT22;23019;49.300;6.846;2022-08-19T03:15:07;24.00;99.90
37108;DHT22;23019;49.300;6.846;2022-08-19T03:17:08;24.00;99.90
37108;DHT22;23019;49.300;6.846;2022-08-19T03:19:09;23.90;99.90
37108;DHT22;23019;49.300;6.846;2022-08-19T03:21:18;24.00;99.90
37108;DHT22;23019;49.300;6.846;2022-08-19T03:23:19;24.00;99.90
37108;DHT22;23019;49.300;6.846;2022-08-19T03:25:19;23.90;99.90
37108;DHT22;23019;49.300;6.846;2022-08-19T03:27:20;23.90;99.90
37108;DHT22;23019;49.300;6.846;2022-08-19T03:29:21;24.00;99.90
37108;DHT22;23019;49.300;6.846;2022-08-19T03:31:23;24.00;99.90
37108;DHT22;23019;49.300;6.846;2022-08-19T03:33:25;23.90;99.90
37108;DHT22;23019;49.300;6.846;2022-08-19T03:35:25;23.90;99.90
37108;DHT22;23019;49.300;6.846;2022-08-19T03:37:26;23.90;99.90
37108;DHT22;23019;49.300;6.846;2022-08-19T03:39:27;23.90;99.90
37108;DHT22;23019;49.300;6.846;2022-08-19T03:41:31;23.90;99.90
37108;DHT22;23019;49.300;6.846;2022-08-19T03:43:37;23.90;99.90
37108;DHT22;23019;49.300;6.846;2022-08-19T03:45:38;23.90;99.90
37108;DHT22;23019;49.300;6.846;2022-08-19T03:47:38;23.80;99.90
37108;DHT22;23019;49.300;6.846;2022-08-19T03:49:40;23.90;99.90
37108;DHT22;23019;49.300;6.846;2022-08-19T03:51:42;23.90;99.90
37108;DHT22;23019;49.300;6.846;2022-08-19T03:53:43;23.90;99.90
37108;DHT22;23019;49.300;6.846;2022-08-19T03:55:44;23.80;99.90
37108;DHT22;23019;49.300;6.846;2022-08-19T03:57:44;23.90;99.90
37108;DHT22;23019;49.300;6.846;2022-08-19T03:59:46;23.90;99.90
37108;DHT22;23019;49.300;6.846;2022-08-19T04:01:47;23.90;99.90
37108;DHT22;23019;49.300;6.846;2022-08-19T04:03:48;23.90;99.90
37108;DHT22;23019;49.300;6.846;2022-08-19T04:05:49;23.80;99.90
37108;DHT22;23019;49.300;6.846;2022-08-19T04:07:50;23.90;99.90
37108;DHT22;23019;49.300;6.846;2022-08-19T04:09:50;23.80;99.90
37108;DHT22;23019;49.300;6.846;2022-08-19T04:11:55;23.80;99.90
37108;DHT22;23019;49.300;6.846;2022-08-19T04:13:56;23.90;99.90
37108;DHT22;23019;49.300;6.846;2022-08-19T04:15:57;23.80;99.90
37108;DHT22;23019;49.300;6.846;2022-08-19T04:17:58;23.80;99.90
37108;DHT22;23019;49.300;6.846;2022-08-19T04:19:59;23.80;99.90
37108;DHT22;23019;49.300;6.846;2022-08-19T04:22:00;23.80;99.90
37108;DHT22;23019;49.300;6.846;2022-08-19T04:24:02;23.80;99.90
37108;DHT22;23019;49.300;6.846;2022-08-19T04:26:03;23.80;99.90
37108;DHT22;23019;49.300;6.846;2022-08-19T04:28:04;23.80;99.90
37108;DHT22;23019;49.300;6.846;2022-08-19T04:30:05;23.80;99.90
37108;DHT22;23019;49.300;6.846;2022-08-19T04:32:06;23.80;99.90
37108;DHT22;23019;49.300;6.846;2022-08-19T04:34:08;23.80;99.90
37108;DHT22;23019;49.300;6.846;2022-08-19T04:36:37;23.80;99.90
37108;DHT22;23019;49.300;6.846;2022-08-19T04:38:38;23.80;99.90
37108;DHT22;23019;49.300;6.846;2022-08-19T04:40:43;23.80;99.90
37108;DHT22;23019;49.300;6.846;2022-08-19T04:43:06;23.80;99.90
37108;DHT22;23019;49.300;6.846;2022-08-19T04:45:12;23.80;99.90
37108;DHT22;23019;49.300;6.846;2022-08-19T04:47:13;23.70;99.90
37108;DHT22;23019;49.300;6.846;2022-08-19T04:49:15;23.80;99.90
37108;DHT22;23019;49.300;6.846;2022-08-19T04:51:17;23.80;99.90
37108;DHT22;23019;49.300;6.846;2022-08-19T04:53:17;23.80;99.90
37108;DHT22;23019;49.300;6.846;2022-08-19T04:55:18;24.00;99.90
37108;DHT22;23019;49.300;6.846;2022-08-19T04:57:19;24.30;99.90
37108;DHT22;23019;49.300;6.846;2022-08-19T04:59:21;25.40;99.90
37108;DHT22;23019;49.300;6.846;2022-08-19T05:01:25;27.00;99.90
37108;DHT22;23019;49.300;6.846;2022-08-19T05:03:26;29.20;99.90
37108;DHT22;23019;49.300;6.846;2022-08-19T05:05:27;31.40;99.90
37108;DHT22;23019;49.300;6.846;2022-08-19T05:07:28;32.90;99.90
37108;DHT22;23019;49.300;6.846;2022-08-19T05:09:29;34.00;99.90
37108;DHT22;23019;49.300;6.846;2022-08-19T05:11:33;34.80;99.90
37108;DHT22;23019;49.300;6.846;2022-08-19T05:13:34;35.10;99.90
37108;DHT22;23019;49.300;6.846;2022-08-19T05:15:35;35.30;99.90
37108;DHT22;23019;49.300;6.846;2022-08-19T05:17:36;35.50;99.90
37108;DHT22;23019;49.300;6.846;2022-08-19T05:19:36;35.60;99.90
37108;DHT22;23019;49.300;6.846;2022-08-19T05:21:56;35.90;99.90
37108;DHT22;23019;49.300;6.846;2022-08-19T05:24:16;36.70;99.90
37108;DHT22;23019;49.300;6.846;2022-08-19T05:26:20;37.20;99.90
37108;DHT22;23019;49.300;6.846;2022-08-19T05:28:21;37.80;99.90
37108;DHT22;23019;49.300;6.846;2022-08-19T05:30:22;38.00;99.90
37108;DHT22;23019;49.300;6.846;2022-08-19T05:32:22;38.20;99.90
37108;DHT22;23019;49.300;6.846;2022-08-19T05:34:24;38.30;99.90
37108;DHT22;23019;49.300;6.846;2022-08-19T05:36:27;38.30;99.90
37108;DHT22;23019;49.300;6.846;2022-08-19T05:38:28;38.20;99.90
37108;DHT22;23019;49.300;6.846;2022-08-19T05:40:30;38.20;99.90
37108;DHT22;23019;49.300;6.846;2022-08-19T05:42:31;38.20;99.90
37108;DHT22;23019;49.300;6.846;2022-08-19T05:44:34;38.20;99.90
37108;DHT22;23019;49.300;6.846;2022-08-19T05:46:38;38.10;99.90
37108;DHT22;23019;49.300;6.846;2022-08-19T05:48:39;38.10;99.90
37108;DHT22;23019;49.300;6.846;2022-08-19T05:50:41;38.00;99.90
37108;DHT22;23019;49.300;6.846;2022-08-19T05:52:42;38.10;99.90
37108;DHT22;23019;49.300;6.846;2022-08-19T05:54:43;38.20;99.90
37108;DHT22;23019;49.300;6.846;2022-08-19T05:56:44;38.20;99.90
37108;DHT22;23019;49.300;6.846;2022-08-19T05:58:47;38.20;99.90
37108;DHT22;23019;49.300;6.846;2022-08-19T06:00:48;38.20;99.90
37108;DHT22;23019;49.300;6.846;2022-08-19T06:02:49;38.30;99.90
37108;DHT22;23019;49.300;6.846;2022-08-19T06:04:51;38.40;99.90
37108;DHT22;23019;49.300;6.846;2022-08-19T06:06:53;38.40;99.90
37108;DHT22;23019;49.300;6.846;2022-08-19T06:08:54;38.50;99.90
37108;DHT22;23019;49.300;6.846;2022-08-19T06:10:55;38.50;99.90
37108;DHT22;23019;49.300;6.846;2022-08-19T06:12:56;38.40;99.90
37108;DHT22;23019;49.300;6.846;2022-08-19T06:14:57;38.50;99.90
37108;DHT22;23019;49.300;6.846;2022-08-19T06:16:58;38.40;99.90
37108;DHT22;23019;49.300;6.846;2022-08-19T06:19:03;38.40;99.90
37108;DHT22;23019;49.300;6.846;2022-08-19T06:21:04;38.60;99.90
37108;DHT22;23019;49.300;6.846;2022-08-19T06:23:05;38.60;99.90
37108;DHT22;23019;49.300;6.846;2022-08-19T06:25:06;38.50;99.90
37108;DHT22;23019;49.300;6.846;2022-08-19T06:27:09;38.50;99.90
37108;DHT22;23019;49.300;6.846;2022-08-19T06:29:11;38.50;99.90
37108;DHT22;23019;49.300;6.846;2022-08-19T06:31:14;38.50;99.90
37108;DHT22;23019;49.300;6.846;2022-08-19T06:33:16;38.50;99.90
37108;DHT22;23019;49.300;6.846;2022-08-19T06:35:17;38.50;99.90
37108;DHT22;23019;49.300;6.846;2022-08-19T06:37:17;38.60;99.90
37108;DHT22;23019;49.300;6.846;2022-08-19T06:39:31;38.60;99.90
37108;DHT22;23019;49.300;6.846;2022-08-19T06:41:40;38.70;99.90
37108;DHT22;23019;49.300;6.846;2022-08-19T06:43:43;38.70;99.90
37108;DHT22;23019;49.300;6.846;2022-08-19T06:45:44;38.80;99.90
37108;DHT22;23019;49.300;6.846;2022-08-19T06:47:45;38.60;99.90
37108;DHT22;23019;49.300;6.846;2022-08-19T06:49:48;38.50;99.90
37108;DHT22;23019;49.300;6.846;2022-08-19T06:51:49;38.60;99.90
37108;DHT22;23019;49.300;6.846;2022-08-19T06:53:53;38.60;99.90
37108;DHT22;23019;49.300;6.846;2022-08-19T06:55:53;38.60;99.90
37108;DHT22;23019;49.300;6.846;2022-08-19T06:58:04;38.50;99.90
37108;DHT22;23019;49.300;6.846;2022-08-19T07:00:06;38.50;99.90
37108;DHT22;23019;49.300;6.846;2022-08-19T07:02:11;38.50;99.90
37108;DHT22;23019;49.300;6.846;2022-08-19T07:04:13;38.60;99.90
37108;DHT22;23019;49.300;6.846;2022-08-19T07:06:17;38.50;99.90
37108;DHT22;23019;49.300;6.846;2022-08-19T07:08:18;38.40;99.90
37108;DHT22;23019;49.300;6.846;2022-08-19T07:10:18;38.40;99.90
37108;DHT22;23019;49.300;6.846;2022-08-19T07:12:19;38.40;99.90
37108;DHT22;23019;49.300;6.846;2022-08-19T07:14:23;38.30;99.90
37108;DHT22;23019;49.300;6.846;2022-08-19T07:16:25;38.40;99.90
37108;DHT22;23019;49.300;6.846;2022-08-19T07:18:27;38.40;99.90
37108;DHT22;23019;49.300;6.846;2022-08-19T07:20:28;38.30;99.90
37108;DHT22;23019;49.300;6.846;2022-08-19T07:22:29;38.30;99.90
37108;DHT22;23019;49.300;6.846;2022-08-19T07:24:30;38.20;99.90
37108;DHT22;23019;49.300;6.846;2022-08-19T07:26:37;38.30;99.90
37108;DHT22;23019;49.300;6.846;2022-08-19T07:28:39;38.30;99.90
37108;DHT22;23019;49.300;6.846;2022-08-19T07:30:39;38.30;99.90
37108;DHT22;23019;49.300;6.846;2022-08-19T07:32:41;38.30;99.90
37108;DHT22;23019;49.300;6.846;2022-08-19T07:34:42;38.30;99.90
37108;DHT22;23019;49.300;6.846;2022-08-19T07:36:44;38.10;99.90
37108;DHT22;23019;49.300;6.846;2022-08-19T07:38:47;38.10;99.90
37108;DHT22;23019;49.300;6.846;2022-08-19T07:40:48;38.10;99.90
37108;DHT22;23019;49.300;6.846;2022-08-19T07:42:49;38.10;99.90
37108;DHT22;23019;49.300;6.846;2022-08-19T07:44:50;38.10;99.90
37108;DHT22;23019;49.300;6.846;2022-08-19T07:46:53;38.10;99.90
37108;DHT22;23019;49.300;6.846;2022-08-19T07:48:55;38.10;99.90
37108;DHT22;23019;49.300;6.846;2022-08-19T07:50:59;38.00;99.90
37108;DHT22;23019;49.300;6.846;2022-08-19T07:53:02;37.90;99.90
37108;DHT22;23019;49.300;6.846;2022-08-19T07:55:04;37.90;99.90
37108;DHT22;23019;49.300;6.846;2022-08-19T07:57:06;37.90;99.90
37108;DHT22;23019;49.300;6.846;2022-08-19T07:59:07;37.90;99.90
37108;DHT22;23019;49.300;6.846;2022-08-19T08:01:12;37.80;99.90
37108;DHT22;23019;49.300;6.846;2022-08-19T08:03:15;37.70;99.90
37108;DHT22;23019;49.300;6.846;2022-08-19T08:05:16;37.70;99.90
37108;DHT22;23019;49.300;6.846;2022-08-19T08:07:35;37.70;99.90
37108;DHT22;23019;49.300;6.846;2022-08-19T08:09:55;37.70;99.90
37108;DHT22;23019;49.300;6.846;2022-08-19T08:12:03;37.60;99.90
37108;DHT22;23019;49.300;6.846;2022-08-19T08:14:04;37.60;99.90
37108;DHT22;23019;49.300;6.846;2022-08-19T08:16:05;37.60;99.90
37108;DHT22;23019;49.300;6.846;2022-08-19T08:18:07;37.50;99.90
37108;DHT22;23019;49.300;6.846;2022-08-19T08:20:09;37.50;99.90
37108;DHT22;23019;49.300;6.846;2022-08-19T08:22:11;37.40;99.90
37108;DHT22;23019;49.300;6.846;2022-08-19T08:24:32;37.40;99.90
37108;DHT22;23019;49.300;6.846;2022-08-19T08:26:34;37.30;99.90
37108;DHT22;23019;49.300;6.846;2022-08-19T08:28:34;37.30;99.90
37108;DHT22;23019;49.300;6.846;2022-08-19T08:30:35;37.30;99.90
37108;DHT22;23019;49.300;6.846;2022-08-19T08:32:38;37.30;99.90
37108;DHT22;23019;49.300;6.846;2022-08-19T08:34:39;37.30;99.90
37108;DHT22;23019;49.300;6.846;2022-08-19T08:36:43;37.20;99.90
37108;DHT22;23019;49.300;6.846;2022-08-19T08:38:46;37.10;99.90
37108;DHT22;23019;49.300;6.846;2022-08-19T08:40:52;37.10;99.90
37108;DHT22;23019;49.300;6.846;2022-08-19T08:43:22;37.10;99.90
37108;DHT22;23019;49.300;6.846;2022-08-19T08:45:19;37.10;99.90
37108;DHT22;23019;49.300;6.846;2022-08-19T08:47:22;37.00;99.90
37108;DHT22;23019;49.300;6.846;2022-08-19T08:49:44;36.90;99.90
37108;DHT22;23019;49.300;6.846;2022-08-19T08:52:27;36.90;99.90
37108;DHT22;23019;49.300;6.846;2022-08-19T08:54:38;36.80;99.90
37108;DHT22;23019;49.300;6.846;2022-08-19T08:56:41;36.80;99.90
37108;DHT22;23019;49.300;6.846;2022-08-19T08:58:51;36.70;99.90
37108;DHT22;23019;49.300;6.846;2022-08-19T09:00:54;36.60;99.90
37108;DHT22;23019;49.300;6.846;2022-08-19T09:02:56;36.60;99.90
37108;DHT22;23019;49.300;6.846;2022-08-19T09:04:57;36.50;99.90
37108;DHT22;23019;49.300;6.846;2022-08-19T09:07:16;36.50;99.90
37108;DHT22;23019;49.300;6.846;2022-08-19T09:09:40;36.50;99.90
37108;DHT22;23019;49.300;6.846;2022-08-19T09:12:00;36.50;99.90
37108;DHT22;23019;49.300;6.846;2022-08-19T09:16:12;36.40;99.90
37108;DHT22;23019;49.300;6.846;2022-08-19T09:18:15;36.40;99.90
37108;DHT22;23019;49.300;6.846;2022-08-19T09:20:22;36.40;99.90
37108;DHT22;23019;49.300;6.846;2022-08-19T09:22:24;36.30;99.90
37108;DHT22;23019;49.300;6.846;2022-08-19T09:24:24;36.40;99.90
37108;DHT22;23019;49.300;6.846;2022-08-19T09:26:26;36.30;99.90
37108;DHT22;23019;49.300;6.846;2022-08-19T09:28:26;36.20;99.90
37108;DHT22;23019;49.300;6.846;2022-08-19T09:30:34;36.30;99.90
37108;DHT22;23019;49.300;6.846;2022-08-19T09:32:35;36.20;99.90
37108;DHT22;23019;49.300;6.846;2022-08-19T09:34:36;36.10;99.90
37108;DHT22;23019;49.300;6.846;2022-08-19T09:36:36;36.00;99.90
37108;DHT22;23019;49.300;6.846;2022-08-19T09:38:40;36.00;99.90
37108;DHT22;23019;49.300;6.846;2022-08-19T09:40:41;36.00;99.90
37108;DHT22;23019;49.300;6.846;2022-08-19T09:42:44;35.80;99.90
37108;DHT22;23019;49.300;6.846;2022-08-19T09:44:47;35.80;99.90
37108;DHT22;23019;49.300;6.846;2022-08-19T09:46:48;35.80;99.90
37108;DHT22;23019;49.300;6.846;2022-08-19T09:48:49;35.70;99.90
37108;DHT22;23019;49.300;6.846;2022-08-19T09:50:50;35.60;99.90
37108;DHT22;23019;49.300;6.846;2022-08-19T09:52:52;35.70;99.90
37108;DHT22;23019;49.300;6.846;2022-08-19T09:54:56;35.60;99.90
37108;DHT22;23019;49.300;6.846;2022-08-19T09:57:00;35.60;99.90
37108;DHT22;23019;49.300;6.846;2022-08-19T09:59:02;35.40;99.90
37108;DHT22;23019;49.300;6.846;2022-08-19T10:01:04;35.50;99.90
37108;DHT22;23019;49.300;6.846;2022-08-19T10:03:06;35.40;99.90
37108;DHT22;23019;49.300;6.846;2022-08-19T10:05:06;35.40;99.90
37108;DHT22;23019;49.300;6.846;2022-08-19T10:07:26;35.40;99.90
37108;DHT22;23019;49.300;6.846;2022-08-19T10:09:29;35.40;99.90
37108;DHT22;23019;49.300;6.846;2022-08-19T10:11:30;35.30;99.90
37108;DHT22;23019;49.300;6.846;2022-08-19T10:13:32;35.20;99.90
37108;DHT22;23019;49.300;6.846;2022-08-19T10:15:34;35.20;99.90
37108;DHT22;23019;49.300;6.846;2022-08-19T10:17:35;35.20;99.90
37108;DHT22;23019;49.300;6.846;2022-08-19T10:19:36;35.20;99.90
37108;DHT22;23019;49.300;6.846;2022-08-19T10:21:36;35.20;99.90
37108;DHT22;23019;49.300;6.846;2022-08-19T10:23:39;35.20;99.90
37108;DHT22;23019;49.300;6.846;2022-08-19T10:25:40;35.20;99.90
37108;DHT22;23019;49.300;6.846;2022-08-19T10:27:41;35.10;99.90
37108;DHT22;23019;49.300;6.846;2022-08-19T10:29:41;35.10;99.90
37108;DHT22;23019;49.300;6.846;2022-08-19T10:31:42;35.00;99.90
37108;DHT22;23019;49.300;6.846;2022-08-19T10:33:43;35.10;99.90
37108;DHT22;23019;49.300;6.846;2022-08-19T10:35:44;35.10;99.90
37108;DHT22;23019;49.300;6.846;2022-08-19T10:37:47;34.90;99.90
37108;DHT22;23019;49.300;6.846;2022-08-19T10:39:47;34.90;99.90
37108;DHT22;23019;49.300;6.846;2022-08-19T10:41:48;34.80;99.90
37108;DHT22;23019;49.300;6.846;2022-08-19T10:43:54;34.70;99.90
37108;DHT22;23019;49.300;6.846;2022-08-19T10:45:55;34.70;99.90
37108;DHT22;23019;49.300;6.846;2022-08-19T10:47:57;34.70;99.90
37108;DHT22;23019;49.300;6.846;2022-08-19T10:49:57;34.60;99.90
37108;DHT22;23019;49.300;6.846;2022-08-19T10:52:16;34.60;99.90
37108;DHT22;23019;49.300;6.846;2022-08-19T10:54:36;34.50;99.90
37108;DHT22;23019;49.300;6.846;2022-08-19T10:56:55;34.60;99.90
37108;DHT22;23019;49.300;6.846;2022-08-19T10:58:56;34.60;99.90
37108;DHT22;23019;49.300;6.846;2022-08-19T11:00:58;34.50;99.90
37108;DHT22;23019;49.300;6.846;2022-08-19T11:02:59;34.40;99.90
37108;DHT22;23019;49.300;6.846;2022-08-19T11:05:00;34.40;99.90
37108;DHT22;23019;49.300;6.846;2022-08-19T11:07:04;34.40;99.90
37108;DHT22;23019;49.300;6.846;2022-08-19T11:09:05;34.40;99.90
37108;DHT22;23019;49.300;6.846;2022-08-19T11:11:06;34.30;99.90
37108;DHT22;23019;49.300;6.846;2022-08-19T11:13:07;34.30;99.90
37108;DHT22;23019;49.300;6.846;2022-08-19T11:15:09;34.20;99.90
37108;DHT22;23019;49.300;6.846;2022-08-19T11:17:11;34.10;99.90
37108;DHT22;23019;49.300;6.846;2022-08-19T11:19:14;34.10;99.90
37108;DHT22;23019;49.300;6.846;2022-08-19T11:21:24;34.10;99.90
37108;DHT22;23019;49.300;6.846;2022-08-19T11:23:25;34.10;99.90
37108;DHT22;23019;49.300;6.846;2022-08-19T11:25:26;34.00;99.90
37108;DHT22;23019;49.300;6.846;2022-08-19T11:27:29;34.00;99.90
37108;DHT22;23019;49.300;6.846;2022-08-19T11:29:31;34.00;99.90
37108;DHT22;23019;49.300;6.846;2022-08-19T11:31:34;33.90;99.90
37108;DHT22;23019;49.300;6.846;2022-08-19T11:33:36;33.90;99.90
37108;DHT22;23019;49.300;6.846;2022-08-19T11:35:39;33.80;99.90
37108;DHT22;23019;49.300;6.846;2022-08-19T11:37:41;33.80;99.90
37108;DHT22;23019;49.300;6.846;2022-08-19T11:39:42;33.80;99.90
37108;DHT22;23019;49.300;6.846;2022-08-19T11:41:42;33.80;99.90
37108;DHT22;23019;49.300;6.846;2022-08-19T11:43:44;33.80;99.90
37108;DHT22;23019;49.300;6.846;2022-08-19T11:45:44;33.70;99.90
37108;DHT22;23019;49.300;6.846;2022-08-19T11:47:45;33.70;99.90
37108;DHT22;23019;49.300;6.846;2022-08-19T11:49:47;33.70;99.90
37108;DHT22;23019;49.300;6.846;2022-08-19T11:51:48;33.60;99.90
37108;DHT22;23019;49.300;6.846;2022-08-19T11:53:52;33.50;99.90
37108;DHT22;23019;49.300;6.846;2022-08-19T11:55:53;33.50;99.90
37108;DHT22;23019;49.300;6.846;2022-08-19T11:57:57;33.50;99.90
37108;DHT22;23019;49.300;6.846;2022-08-19T11:59:58;33.50;99.90
37108;DHT22;23019;49.300;6.846;2022-08-19T12:01:58;33.40;99.90
37108;DHT22;23019;49.300;6.846;2022-08-19T12:03:59;33.40;99.90
37108;DHT22;23019;49.300;6.846;2022-08-19T12:06:08;33.40;99.90
37108;DHT22;23019;49.300;6.846;2022-08-19T12:08:10;33.40;99.90
37108;DHT22;23019;49.300;6.846;2022-08-19T12:10:12;33.40;99.90
37108;DHT22;23019;49.300;6.846;2022-08-19T12:12:12;33.30;99.90
37108;DHT22;23019;49.300;6.846;2022-08-19T12:14:13;33.20;99.90
37108;DHT22;23019;49.300;6.846;2022-08-19T12:16:17;33.20;99.90
37108;DHT22;23019;49.300;6.846;2022-08-19T12:18:18;33.20;99.90
37108;DHT22;23019;49.300;6.846;2022-08-19T12:20:18;33.20;99.90
37108;DHT22;23019;49.300;6.846;2022-08-19T12:22:19;33.10;99.90
37108;DHT22;23019;49.300;6.846;2022-08-19T12:24:21;33.10;99.90
37108;DHT22;23019;49.300;6.846;2022-08-19T12:26:25;33.00;99.90
37108;DHT22;23019;49.300;6.846;2022-08-19T12:28:26;33.00;99.90
37108;DHT22;23019;49.300;6.846;2022-08-19T12:30:27;33.00;99.90
37108;DHT22;23019;49.300;6.846;2022-08-19T12:32:27;32.90;99.90
37108;DHT22;23019;49.300;6.846;2022-08-19T12:34:29;32.90;99.90
37108;DHT22;23019;49.300;6.846;2022-08-19T12:36:30;32.90;99.90
37108;DHT22;23019;49.300;6.846;2022-08-19T12:38:32;32.80;99.90
37108;DHT22;23019;49.300;6.846;2022-08-19T12:40:36;32.80;99.90
37108;DHT22;23019;49.300;6.846;2022-08-19T12:42:38;32.70;99.90
37108;DHT22;23019;49.300;6.846;2022-08-19T12:44:43;32.70;99.90
37108;DHT22;23019;49.300;6.846;2022-08-19T12:46:43;32.80;99.90
37108;DHT22;23019;49.300;6.846;2022-08-19T12:48:45;32.80;99.90
37108;DHT22;23019;49.300;6.846;2022-08-19T12:50:46;32.80;99.90
37108;DHT22;23019;49.300;6.846;2022-08-19T12:52:47;32.80;99.90
37108;DHT22;23019;49.300;6.846;2022-08-19T12:54:48;32.70;99.90
37108;DHT22;23019;49.300;6.846;2022-08-19T12:56:49;32.70;99.90
37108;DHT22;23019;49.300;6.846;2022-08-19T12:58:50;32.60;99.90